createdAt,value
2018-04-16T04:34:20.527Z,144.00
2018-04-16T04:35:20.430Z,156.00
2018-04-16T04:36:20.352Z,168.00
2018-04-16T04:37:20.381Z,184.00
2018-04-16T04:38:20.382Z,200.00
2018-04-16T04:39:20.335Z,216.00
2018-04-16T04:40:20.318Z,232.00
2018-04-16T04:41:20.303Z,252.00
2018-04-16T04:42:20.283Z,272.00
2018-04-16T04:43:20.543Z,296.00
2018-04-16T04:44:20.277Z,324.00
2018-04-16T04:45:20.285Z,340.00
2018-04-16T04:46:20.224Z,360.00
2018-04-16T04:47:20.233Z,384.00
2018-04-16T04:48:20.203Z,408.00
2018-04-16T04:49:20.216Z,436.00
2018-04-16T04:50:20.166Z,468.00
2018-04-16T04:51:20.179Z,488.00
2018-04-16T04:52:20.169Z,488.00
2018-04-16T04:53:20.154Z,504.00
2018-04-16T04:54:20.144Z,532.00
2018-04-16T04:55:20.130Z,556.00
2018-04-16T04:56:20.155Z,572.00
2018-04-16T04:57:20.096Z,588.00
2018-04-16T04:58:20.085Z,600.00
2018-04-16T04:59:20.513Z,628.00
2018-04-16T05:00:20.060Z,636.00
2018-04-16T05:01:20.034Z,632.00
2018-04-16T05:02:20.027Z,636.00
2018-04-16T05:03:20.025Z,652.00
2018-04-16T05:04:20.036Z,660.00
2018-04-16T05:05:20.092Z,656.00
2018-04-16T05:06:19.994Z,652.00
2018-04-16T05:07:19.988Z,668.00
2018-04-16T05:08:19.973Z,688.00
2018-04-16T05:09:19.937Z,700.00
2018-04-16T05:10:19.942Z,720.00
2018-04-16T05:11:19.938Z,736.00
2018-04-16T05:12:19.938Z,752.00
2018-04-16T05:13:19.923Z,768.00
2018-04-16T05:14:19.915Z,776.00
2018-04-16T05:15:19.897Z,772.00
2018-04-16T05:16:19.910Z,764.00
2018-04-16T05:17:20.072Z,756.00
2018-04-16T05:18:19.864Z,764.00
2018-04-16T05:19:19.840Z,768.00
2018-04-16T05:20:19.812Z,768.00
2018-04-16T05:21:19.812Z,768.00
2018-04-16T05:22:19.810Z,776.00
2018-04-16T05:23:19.816Z,788.00
2018-04-16T05:24:19.764Z,800.00
2018-04-16T05:25:19.771Z,812.00
2018-04-16T05:26:19.774Z,820.00
2018-04-16T05:27:19.780Z,832.00
2018-04-16T05:28:19.780Z,848.00
2018-04-16T05:29:19.707Z,864.00
2018-04-16T05:30:20.060Z,872.00
2018-04-16T05:31:19.682Z,876.00
2018-04-16T05:32:19.676Z,888.00
2018-04-16T05:33:19.674Z,900.00
2018-04-16T05:34:19.687Z,912.00
2018-04-16T05:35:19.667Z,928.00
2018-04-16T05:36:19.641Z,944.00
2018-04-16T05:37:19.642Z,956.00
2018-04-16T05:38:19.632Z,964.00
2018-04-16T05:39:19.652Z,976.00
2018-04-16T05:40:19.610Z,984.00
2018-04-16T05:41:19.592Z,1004.00
2018-04-16T05:42:19.645Z,1024.00
2018-04-16T05:43:19.573Z,1040.00
2018-04-16T05:44:19.559Z,1056.00
2018-04-16T05:45:19.525Z,1076.00
2018-04-16T05:46:19.533Z,1084.00
2018-04-16T05:47:19.509Z,1096.00
2018-04-16T05:48:19.511Z,1104.00
2018-04-16T05:49:19.505Z,1116.00
2018-04-16T05:50:19.478Z,1132.00
2018-04-16T05:51:19.493Z,1140.00
2018-04-16T05:52:19.457Z,1136.00
2018-04-16T05:53:19.511Z,1152.00
2018-04-16T05:54:19.452Z,1180.00
2018-04-16T05:55:19.417Z,1200.00
2018-04-16T05:56:19.402Z,1224.00
2018-04-16T05:57:19.400Z,1260.00
2018-04-16T05:58:19.399Z,1308.00
2018-04-16T05:59:19.413Z,1412.00
2018-04-16T06:00:19.411Z,1412.00
2018-04-16T06:01:19.366Z,1448.00
2018-04-16T06:02:19.362Z,1416.00
2018-04-16T06:03:19.353Z,1408.00
2018-04-16T06:04:19.338Z,1476.00
2018-04-16T06:05:19.376Z,1504.00
2018-04-16T06:06:19.301Z,1500.00
2018-04-16T06:07:19.286Z,1528.00
2018-04-16T06:08:19.289Z,1548.00
2018-04-16T06:09:19.263Z,1584.00
2018-04-16T06:10:19.246Z,1644.00
2018-04-16T06:11:19.285Z,1688.00
2018-04-16T06:12:19.269Z,1728.00
2018-04-16T06:13:19.205Z,1752.00
2018-04-16T06:14:19.224Z,1752.00
2018-04-16T06:15:19.206Z,1780.00
2018-04-16T06:16:19.199Z,1800.00
2018-04-16T06:17:19.215Z,1800.00
2018-04-16T06:18:19.159Z,1828.00
2018-04-16T06:19:19.149Z,1848.00
2018-04-16T06:20:19.138Z,1884.00
2018-04-16T06:21:19.297Z,1888.00
2018-04-16T06:22:19.128Z,1900.00
2018-04-16T06:23:19.130Z,1932.00
2018-04-16T06:24:19.103Z,1944.00
2018-04-16T06:25:19.078Z,1948.00
2018-04-16T06:26:19.087Z,1972.00
2018-04-16T06:27:19.157Z,2000.00
2018-04-16T06:28:19.047Z,2060.00
2018-04-16T06:29:19.063Z,2112.00
2018-04-16T06:30:19.020Z,2128.00
2018-04-16T06:31:19.031Z,2152.00
2018-04-16T06:32:19.090Z,2140.00
2018-04-16T06:33:18.996Z,2176.00
2018-04-16T06:34:18.993Z,2268.00
2018-04-16T06:35:18.987Z,2312.00
2018-04-16T06:36:18.949Z,2268.00
2018-04-16T06:37:18.945Z,2284.00
2018-04-16T06:38:18.971Z,2272.00
2018-04-16T06:39:18.944Z,2272.00
2018-04-16T06:40:18.907Z,2272.00
2018-04-16T06:41:18.924Z,2292.00
2018-04-16T06:42:18.948Z,2316.00
2018-04-16T06:43:18.902Z,2336.00
2018-04-16T06:44:18.865Z,2352.00
2018-04-16T06:45:18.882Z,2352.00
2018-04-16T06:46:18.863Z,2340.00
2018-04-16T06:47:19.123Z,2356.00
2018-04-16T06:48:18.843Z,2360.00
2018-04-16T06:49:18.811Z,2400.00
2018-04-16T06:50:18.845Z,2444.00
2018-04-16T06:51:18.793Z,2424.00
2018-04-16T06:52:18.861Z,2472.00
2018-04-16T06:53:18.799Z,2460.00
2018-04-16T06:54:18.769Z,2480.00
2018-04-16T06:55:18.770Z,2508.00
2018-04-16T06:56:18.761Z,2556.00
2018-04-16T06:57:18.899Z,2620.00
2018-04-16T06:58:18.739Z,2648.00
2018-04-16T06:59:18.704Z,2668.00
2018-04-16T07:00:18.720Z,2672.00
2018-04-16T07:01:18.725Z,2700.00
2018-04-16T07:02:18.699Z,2716.00
2018-04-16T07:03:18.797Z,2708.00
2018-04-16T07:04:18.671Z,2740.00
2018-04-16T07:05:18.671Z,2756.00
2018-04-16T07:06:18.650Z,2768.00
2018-04-16T07:07:18.637Z,2780.00
2018-04-16T07:08:18.654Z,2808.00
2018-04-16T07:09:18.652Z,2840.00
2018-04-16T07:10:18.598Z,2856.00
2018-04-16T07:11:18.573Z,2868.00
2018-04-16T07:12:18.563Z,2868.00
2018-04-16T07:13:18.647Z,2844.00
2018-04-16T07:14:18.573Z,2852.00
2018-04-16T07:15:18.571Z,2872.00
2018-04-16T07:16:18.562Z,2904.00
2018-04-16T07:17:18.521Z,2924.00
2018-04-16T07:18:18.535Z,2932.00
2018-04-16T07:19:18.514Z,2964.00
2018-04-16T07:20:18.554Z,2972.00
2018-04-16T07:21:18.505Z,2968.00
2018-04-16T07:22:18.492Z,2964.00
2018-04-16T07:23:18.476Z,2984.00
2018-04-16T07:24:18.457Z,3020.00
2018-04-16T07:25:18.440Z,3004.00
2018-04-16T07:26:18.447Z,2964.00
2018-04-16T07:27:18.457Z,2932.00
2018-04-16T07:28:18.430Z,2932.00
2018-04-16T07:29:18.461Z,2992.00
2018-04-16T07:30:18.388Z,3052.00
2018-04-16T07:31:18.421Z,3032.00
2018-04-16T07:32:18.370Z,3036.00
2018-04-16T07:33:18.368Z,3088.00
2018-04-16T07:34:18.363Z,3140.00
2018-04-16T07:35:18.369Z,3140.00
2018-04-16T07:36:18.355Z,3136.00
2018-04-16T07:37:18.351Z,3136.00
2018-04-16T07:38:18.337Z,3164.00
2018-04-16T07:39:18.304Z,3224.00
2018-04-16T07:40:18.300Z,3256.00
2018-04-16T07:41:18.430Z,3248.00
2018-04-16T07:42:18.286Z,3208.00
2018-04-16T07:43:18.296Z,3124.00
2018-04-16T07:44:18.279Z,3084.00
2018-04-16T07:45:18.272Z,3140.00
2018-04-16T07:46:18.237Z,3244.00
2018-04-16T07:47:18.288Z,3316.00
2018-04-16T07:48:18.249Z,3348.00
2018-04-16T07:49:18.237Z,3404.00
2018-04-16T07:50:18.210Z,3440.00
2018-04-16T07:51:18.218Z,3460.00
2018-04-16T07:52:18.244Z,3424.00
2018-04-16T07:53:18.340Z,3460.00
2018-04-16T07:54:18.178Z,3464.00
2018-04-16T07:55:18.189Z,3472.00
2018-04-16T07:56:18.157Z,3512.00
2018-04-16T07:57:18.167Z,3572.00
2018-04-16T07:58:18.130Z,3584.00
2018-04-16T07:59:18.155Z,3604.00
2018-04-16T08:00:18.109Z,3552.00
2018-04-16T08:01:18.107Z,3520.00
2018-04-16T08:02:18.125Z,3544.00
2018-04-16T08:03:18.111Z,3576.00
2018-04-16T08:04:18.232Z,3592.00
2018-04-16T08:05:18.075Z,3652.00
2018-04-16T08:06:18.084Z,3720.00
2018-04-16T08:07:18.067Z,3748.00
2018-04-16T08:08:18.079Z,3736.00
2018-04-16T08:09:18.055Z,3772.00
2018-04-16T08:10:18.102Z,3768.00
2018-04-16T08:11:18.033Z,3728.00
2018-04-16T08:12:18.027Z,3764.00
2018-04-16T08:13:18.047Z,3792.00
2018-04-16T08:14:18.016Z,3836.00
2018-04-16T08:15:18.000Z,3856.00
2018-04-16T08:16:17.992Z,3904.00
2018-04-16T08:17:17.986Z,3932.00
2018-04-16T08:18:17.987Z,3960.00
2018-04-16T08:19:18.021Z,3984.00
2018-04-16T08:20:18.011Z,4036.00
2018-04-16T08:21:18.104Z,4144.00
2018-04-16T08:22:17.953Z,4172.00
2018-04-16T08:23:17.933Z,4224.00
2018-04-16T08:24:17.927Z,4276.00
2018-04-16T08:25:17.904Z,4424.00
2018-04-16T08:26:17.908Z,4528.00
2018-04-16T08:27:18.041Z,4668.00
2018-04-16T08:28:17.891Z,4824.00
2018-04-16T08:29:17.885Z,5040.00
2018-04-16T08:30:17.882Z,5168.00
2018-04-16T08:31:17.858Z,5076.00
2018-04-16T08:32:17.835Z,5004.00
2018-04-16T08:33:17.877Z,5100.00
2018-04-16T08:34:17.831Z,5340.00
2018-04-16T08:35:17.839Z,5588.00
2018-04-16T08:36:17.865Z,6072.00
2018-04-16T08:37:17.808Z,6436.00
2018-04-16T08:38:17.827Z,6644.00
2018-04-16T08:39:17.791Z,7068.00
2018-04-16T08:40:17.790Z,7804.00
2018-04-16T08:41:17.789Z,8460.00
2018-04-16T08:42:17.784Z,8888.00
2018-04-16T08:43:17.838Z,8972.00
2018-04-16T08:44:17.767Z,8864.00
2018-04-16T08:45:17.771Z,8488.00
2018-04-16T08:46:17.758Z,8508.00
2018-04-16T08:47:17.755Z,8984.00
2018-04-16T08:48:17.718Z,9632.00
2018-04-16T08:49:18.110Z,9816.00
2018-04-16T08:50:17.736Z,10008.00
2018-04-16T08:51:17.712Z,9912.00
2018-04-16T08:52:17.723Z,9624.00
2018-04-16T08:53:17.711Z,8732.00
2018-04-16T08:54:17.705Z,8884.00
2018-04-16T08:55:17.715Z,8444.00
2018-04-16T08:56:17.684Z,7020.00
2018-04-16T08:57:17.675Z,6448.00
2018-04-16T08:58:17.687Z,6164.00
2018-04-16T08:59:17.719Z,5432.00
2018-04-16T09:00:17.674Z,5544.00
2018-04-16T09:01:17.639Z,6728.00
2018-04-16T09:02:17.636Z,6296.00
2018-04-16T09:03:17.655Z,6352.00
2018-04-16T09:04:17.683Z,6192.00
2018-04-16T09:05:17.632Z,6232.00
2018-04-16T09:06:17.618Z,6100.00
2018-04-16T09:07:17.622Z,6092.00
2018-04-16T09:08:17.615Z,6068.00
2018-04-16T09:09:17.593Z,6100.00
2018-04-16T09:10:17.586Z,6108.00
2018-04-16T09:11:17.610Z,5996.00
2018-04-16T09:12:17.577Z,6316.00
2018-04-16T09:13:17.578Z,6260.00
2018-04-16T09:14:17.592Z,6632.00
2018-04-16T09:15:17.587Z,8832.00
2018-04-16T09:16:17.571Z,8236.00
2018-04-16T09:17:17.557Z,7692.00
2018-04-16T09:18:17.553Z,7672.00
2018-04-16T09:19:17.547Z,6876.00
2018-04-16T09:20:17.515Z,7148.00
2018-04-16T09:21:17.548Z,7248.00
2018-04-16T09:22:17.524Z,7200.00
2018-04-16T09:23:17.510Z,7224.00
2018-04-16T09:24:17.523Z,7328.00
2018-04-16T09:25:17.483Z,7584.00
2018-04-16T09:26:17.521Z,7664.00
2018-04-16T09:27:17.643Z,8040.00
2018-04-16T09:28:17.468Z,8212.00
2018-04-16T09:29:17.497Z,8604.00
2018-04-16T09:30:17.469Z,8656.00
2018-04-16T09:31:17.486Z,9040.00
2018-04-16T09:32:17.475Z,9880.00
2018-04-16T09:33:17.463Z,10220.00
2018-04-16T09:34:17.457Z,10668.00
2018-04-16T09:35:17.480Z,11820.00
2018-04-16T09:36:17.444Z,11536.00
2018-04-16T09:37:17.466Z,6304.00
2018-04-16T09:38:17.533Z,6036.00
2018-04-16T09:39:17.450Z,5972.00
2018-04-16T09:40:17.433Z,6612.00
2018-04-16T09:41:17.439Z,8456.00
2018-04-16T09:42:17.421Z,5852.00
2018-04-16T09:43:17.438Z,6024.00
2018-04-16T09:44:17.660Z,6840.00
2018-04-16T09:45:17.439Z,9912.00
2018-04-16T09:46:17.408Z,13140.00
2018-04-16T09:47:17.461Z,8068.00
2018-04-16T09:48:17.414Z,10196.00
2018-04-16T09:49:17.375Z,9904.00
2018-04-16T09:50:17.592Z,10852.00
2018-04-16T09:51:17.366Z,10788.00
2018-04-16T09:52:17.380Z,12960.00
2018-04-16T09:53:17.363Z,34176.00
2018-04-16T09:54:17.375Z,40640.00
2018-04-16T09:55:17.374Z,51648.00
2018-04-16T09:56:17.436Z,59136.00
2018-04-16T09:57:17.359Z,64224.00
2018-04-16T09:58:17.364Z,71360.00
2018-04-16T09:59:17.353Z,73600.00
2018-04-16T10:00:17.382Z,52480.00
2018-04-16T10:01:17.333Z,46720.00
2018-04-16T10:02:17.350Z,55968.00
2018-04-16T10:03:17.338Z,63520.00
2018-04-16T10:04:17.334Z,43776.00
2018-04-16T10:05:17.319Z,51040.00
2018-04-16T10:06:17.307Z,51520.00
2018-04-16T10:07:17.362Z,37472.00
2018-04-16T10:08:17.300Z,60128.00
2018-04-16T10:09:17.294Z,25536.00
2018-04-16T10:10:17.311Z,21056.00
2018-04-16T10:11:17.310Z,23488.00
2018-04-16T10:12:17.330Z,23744.00
2018-04-16T10:13:17.316Z,23936.00
2018-04-16T10:14:17.305Z,23648.00
2018-04-16T10:15:17.314Z,14980.00
2018-04-16T10:16:17.286Z,13160.00
2018-04-16T10:17:17.310Z,14936.00
2018-04-16T10:18:17.655Z,20992.00
2018-04-16T10:19:17.279Z,24416.00
2018-04-16T10:20:17.267Z,15084.00
2018-04-16T10:21:17.276Z,36736.00
2018-04-16T10:22:17.268Z,53088.00
2018-04-16T10:23:17.280Z,50144.00
2018-04-16T10:24:17.268Z,48384.00
2018-04-16T10:25:17.257Z,57728.00
2018-04-16T10:26:17.338Z,53408.00
2018-04-16T10:27:17.275Z,52896.00
2018-04-16T10:28:17.276Z,53632.00
2018-04-16T10:29:17.308Z,49600.00
2018-04-16T10:30:17.303Z,44288.00
2018-04-16T10:31:17.245Z,38816.00
2018-04-16T10:32:17.253Z,41312.00
2018-04-16T10:33:17.264Z,37792.00
2018-04-16T10:34:17.273Z,38048.00
2018-04-16T10:35:17.271Z,36800.00
2018-04-16T10:36:17.265Z,34720.00
2018-04-16T10:37:17.261Z,28416.00
2018-04-16T10:38:17.231Z,37888.00
2018-04-16T10:39:17.369Z,31872.00
2018-04-16T10:40:17.255Z,20096.00
2018-04-16T10:41:17.255Z,26720.00
2018-04-16T10:42:17.251Z,21408.00
2018-04-16T10:43:17.261Z,18208.00
2018-04-16T10:44:17.255Z,13116.00
2018-04-16T10:45:17.288Z,25152.00
2018-04-16T10:46:17.243Z,9668.00
2018-04-16T10:47:17.262Z,8852.00
2018-04-16T10:48:17.240Z,8328.00
2018-04-16T10:49:17.258Z,8500.00
2018-04-16T10:50:17.250Z,10304.00
2018-04-16T10:51:17.267Z,13284.00
2018-04-16T10:52:17.249Z,29472.00
2018-04-16T10:53:17.238Z,14596.00
2018-04-16T10:54:17.240Z,16416.00
2018-04-16T10:55:17.221Z,15776.00
2018-04-16T10:56:17.224Z,15072.00
2018-04-16T10:57:17.231Z,11468.00
2018-04-16T10:58:17.221Z,11624.00
2018-04-16T10:59:17.198Z,10020.00
2018-04-16T11:00:17.205Z,11012.00
2018-04-16T11:01:17.222Z,24768.00
2018-04-16T11:02:17.189Z,27328.00
2018-04-16T11:03:17.211Z,24416.00
2018-04-16T11:04:17.192Z,10776.00
2018-04-16T11:05:17.204Z,11300.00
2018-04-16T11:06:17.260Z,8732.00
2018-04-16T11:07:17.195Z,8272.00
2018-04-16T11:08:17.190Z,8792.00
2018-04-16T11:09:17.202Z,10924.00
2018-04-16T11:10:17.157Z,34432.00
2018-04-16T11:11:17.198Z,17152.00
2018-04-16T11:12:17.168Z,21632.00
2018-04-16T11:13:17.161Z,41344.00
2018-04-16T11:14:17.149Z,19424.00
2018-04-16T11:15:17.126Z,47552.00
2018-04-16T11:16:17.149Z,43040.00
2018-04-16T11:17:17.166Z,36480.00
2018-04-16T11:18:17.170Z,19648.00
2018-04-16T11:19:17.127Z,11064.00
2018-04-16T11:20:17.132Z,9112.00
2018-04-16T11:21:17.128Z,8388.00
2018-04-16T11:22:17.123Z,8276.00
2018-04-16T11:23:17.691Z,9196.00
2018-04-16T11:24:17.113Z,11416.00
2018-04-16T11:25:17.171Z,24448.00
2018-04-16T11:26:17.102Z,13612.00
2018-04-16T11:27:17.083Z,14256.00
2018-04-16T11:28:17.102Z,20320.00
2018-04-16T11:29:17.086Z,18016.00
2018-04-16T11:30:17.063Z,19328.00
2018-04-16T11:31:17.221Z,26048.00
2018-04-16T11:32:17.118Z,30592.00
2018-04-16T11:33:17.049Z,27360.00
2018-04-16T11:34:17.072Z,29600.00
2018-04-16T11:35:17.069Z,33440.00
2018-04-16T11:36:17.042Z,28800.00
2018-04-16T11:37:17.079Z,27552.00
2018-04-16T11:38:17.116Z,27360.00
2018-04-16T11:39:17.041Z,30016.00
2018-04-16T11:40:17.019Z,37536.00
2018-04-16T11:41:17.034Z,38304.00
2018-04-16T11:42:17.010Z,35712.00
2018-04-16T11:43:17.022Z,34688.00
2018-04-16T11:44:17.249Z,41696.00
2018-04-16T11:45:17.019Z,35168.00
2018-04-16T11:46:17.013Z,41568.00
2018-04-16T11:47:17.013Z,38464.00
2018-04-16T11:48:16.996Z,38848.00
2018-04-16T11:49:17.016Z,35488.00
2018-04-16T11:50:16.992Z,33664.00
2018-04-16T11:51:16.985Z,35680.00
2018-04-16T11:52:17.007Z,36352.00
2018-04-16T11:53:16.992Z,40768.00
2018-04-16T11:54:17.002Z,32864.00
2018-04-16T11:55:17.013Z,31296.00
2018-04-16T11:56:16.995Z,34592.00
2018-04-16T11:57:16.997Z,31680.00
2018-04-16T11:58:17.002Z,44096.00
2018-04-16T11:59:16.984Z,46144.00
2018-04-16T12:00:17.036Z,44640.00
2018-04-16T12:01:16.965Z,43680.00
2018-04-16T12:02:16.977Z,43840.00
2018-04-16T12:03:16.963Z,41568.00
2018-04-16T12:04:17.054Z,43488.00
2018-04-16T12:05:16.964Z,32160.00
2018-04-16T12:06:17.112Z,30624.00
2018-04-16T12:07:16.979Z,39360.00
2018-04-16T12:08:16.958Z,36576.00
2018-04-16T12:09:16.968Z,36768.00
2018-04-16T12:10:16.981Z,28192.00
2018-04-16T12:11:16.952Z,28256.00
2018-04-16T12:12:16.979Z,26912.00
2018-04-16T12:13:16.946Z,24224.00
2018-04-16T12:14:16.945Z,28608.00
2018-04-16T12:15:16.966Z,30016.00
2018-04-16T12:16:16.976Z,30816.00
2018-04-16T12:17:16.963Z,30176.00
2018-04-16T12:18:17.119Z,30144.00
2018-04-16T12:19:16.962Z,37312.00
2018-04-16T12:20:16.959Z,33088.00
2018-04-16T12:21:16.954Z,22336.00
2018-04-16T12:22:17.017Z,34944.00
2018-04-16T12:23:16.952Z,39456.00
2018-04-16T12:24:16.985Z,40864.00
2018-04-16T12:25:16.921Z,47232.00
2018-04-16T12:26:16.934Z,44640.00
2018-04-16T12:27:16.970Z,44384.00
2018-04-16T12:28:16.944Z,40832.00
2018-04-16T12:29:16.973Z,28160.00
2018-04-16T12:30:16.961Z,34528.00
2018-04-16T12:31:16.963Z,40576.00
2018-04-16T12:32:17.005Z,23744.00
2018-04-16T12:33:16.908Z,25792.00
2018-04-16T12:34:16.931Z,22400.00
2018-04-16T12:35:16.897Z,40704.00
2018-04-16T12:36:16.924Z,40960.00
2018-04-16T12:37:16.909Z,25024.00
2018-04-16T12:38:16.989Z,20256.00
2018-04-16T12:39:16.918Z,17824.00
2018-04-16T12:40:16.912Z,16352.00
2018-04-16T12:41:16.917Z,14836.00
2018-04-16T12:42:16.901Z,13948.00
2018-04-16T12:43:16.893Z,14060.00
2018-04-16T12:44:16.913Z,31776.00
2018-04-16T12:45:16.905Z,40192.00
2018-04-16T12:46:16.902Z,30464.00
2018-04-16T12:47:16.900Z,38176.00
2018-04-16T12:48:16.941Z,23040.00
2018-04-16T12:49:16.913Z,20512.00
2018-04-16T12:50:16.880Z,25344.00
2018-04-16T12:51:16.889Z,28032.00
2018-04-16T12:52:16.861Z,31456.00
2018-04-16T12:53:16.887Z,24288.00
2018-04-16T12:54:16.863Z,23200.00
2018-04-16T12:55:16.868Z,16960.00
2018-04-16T12:56:16.869Z,20512.00
2018-04-16T12:57:16.871Z,19424.00
2018-04-16T12:58:16.872Z,20992.00
2018-04-16T12:59:16.915Z,27744.00
2018-04-16T13:00:16.869Z,36896.00
2018-04-16T13:01:16.862Z,35328.00
2018-04-16T13:02:16.833Z,23712.00
2018-04-16T13:03:16.841Z,35904.00
2018-04-16T13:04:16.855Z,50272.00
2018-04-16T13:05:16.888Z,10432.00
2018-04-16T13:06:16.866Z,9672.00
2018-04-16T13:07:16.850Z,8960.00
2018-04-16T13:08:16.839Z,8968.00
2018-04-16T13:09:16.847Z,9168.00
2018-04-16T13:10:16.870Z,9164.00
2018-04-16T13:11:16.817Z,8060.00
2018-04-16T13:12:16.835Z,8272.00
2018-04-16T13:13:16.823Z,8928.00
2018-04-16T13:14:16.812Z,10220.00
2018-04-16T13:15:17.286Z,12276.00
2018-04-16T13:16:16.831Z,58752.00
2018-04-16T13:17:16.820Z,62144.00
2018-04-16T13:18:16.827Z,55712.00
2018-04-16T13:19:16.790Z,50368.00
2018-04-16T13:20:16.808Z,53280.00
2018-04-16T13:21:16.820Z,44096.00
2018-04-16T13:22:16.794Z,37920.00
2018-04-16T13:23:16.801Z,61664.00
2018-04-16T13:24:16.778Z,63744.00
2018-04-16T13:25:16.950Z,14248.00
2018-04-16T13:26:16.773Z,58656.00
2018-04-16T13:27:16.795Z,66080.00
2018-04-16T13:28:16.813Z,42080.00
2018-04-16T13:29:16.785Z,25344.00
2018-04-16T13:30:16.794Z,34624.00
2018-04-16T13:31:16.788Z,32800.00
2018-04-16T13:32:16.798Z,39552.00
2018-04-16T13:33:16.787Z,41152.00
2018-04-16T13:34:16.767Z,11924.00
2018-04-16T13:35:16.785Z,11060.00
2018-04-16T13:36:16.800Z,14984.00
2018-04-16T13:37:16.759Z,12108.00
2018-04-16T13:38:16.763Z,17760.00
2018-04-16T13:39:16.771Z,16608.00
2018-04-16T13:40:16.788Z,48000.00
2018-04-16T13:41:16.834Z,46560.00
2018-04-16T13:42:16.811Z,41184.00
2018-04-16T13:43:16.753Z,36128.00
2018-04-16T13:44:16.797Z,46848.00
2018-04-16T13:45:16.767Z,62784.00
2018-04-16T13:46:16.775Z,57696.00
2018-04-16T13:47:17.186Z,13172.00
2018-04-16T13:48:16.769Z,66016.00
2018-04-16T13:49:16.770Z,68096.00
2018-04-16T13:50:16.764Z,19200.00
2018-04-16T13:51:16.748Z,14068.00
2018-04-16T13:52:16.743Z,39104.00
2018-04-16T13:53:16.770Z,64224.00
2018-04-16T13:54:16.767Z,13044.00
2018-04-16T13:55:16.762Z,13072.00
2018-04-16T13:56:16.748Z,17888.00
2018-04-16T13:57:16.744Z,19488.00
2018-04-16T13:58:16.787Z,52736.00
2018-04-16T13:59:16.769Z,13860.00
2018-04-16T14:00:16.761Z,14636.00
2018-04-16T14:01:16.735Z,42400.00
2018-04-16T14:02:16.761Z,50624.00
2018-04-16T14:03:16.765Z,16576.00
2018-04-16T14:04:16.746Z,13972.00
2018-04-16T14:05:16.746Z,15360.00
2018-04-16T14:06:16.751Z,14364.00
2018-04-16T14:07:16.755Z,28064.00
2018-04-16T14:08:16.808Z,26176.00
2018-04-16T14:09:16.742Z,33568.00
2018-04-16T14:10:16.743Z,43776.00
2018-04-16T14:11:16.742Z,49792.00
2018-04-16T14:12:16.740Z,62208.00
2018-04-16T14:13:16.743Z,58272.00
2018-04-16T14:14:16.789Z,63904.00
2018-04-16T14:15:16.743Z,62848.00
2018-04-16T14:16:16.726Z,57824.00
2018-04-16T14:17:16.733Z,43680.00
2018-04-16T14:18:16.713Z,55104.00
2018-04-16T14:19:16.724Z,57952.00
2018-04-16T14:20:16.726Z,45632.00
2018-04-16T14:21:16.728Z,13404.00
2018-04-16T14:22:16.736Z,14032.00
2018-04-16T14:23:16.719Z,12356.00
2018-04-16T14:24:16.775Z,9916.00
2018-04-16T14:25:16.763Z,11588.00
2018-04-16T14:26:16.706Z,50944.00
2018-04-16T14:27:16.727Z,54176.00
2018-04-16T14:28:16.709Z,21024.00
2018-04-16T14:29:16.861Z,11036.00
2018-04-16T14:30:16.745Z,9928.00
2018-04-16T14:31:16.701Z,9640.00
2018-04-16T14:32:16.703Z,9388.00
2018-04-16T14:33:16.693Z,8992.00
2018-04-16T14:34:16.704Z,8864.00
2018-04-16T14:35:16.696Z,8552.00
2018-04-16T14:36:16.723Z,8376.00
2018-04-16T14:37:16.714Z,8144.00
2018-04-16T14:38:16.686Z,8036.00
2018-04-16T14:39:16.714Z,11488.00
2018-04-16T14:40:16.840Z,8492.00
2018-04-16T14:41:16.711Z,9152.00
2018-04-16T14:42:16.698Z,25152.00
2018-04-16T14:43:16.697Z,9944.00
2018-04-16T14:44:16.685Z,9032.00
2018-04-16T14:45:16.685Z,8828.00
2018-04-16T14:46:16.721Z,9048.00
2018-04-16T14:47:16.684Z,9452.00
2018-04-16T14:48:16.681Z,9876.00
2018-04-16T14:49:16.653Z,10232.00
2018-04-16T14:50:16.650Z,11368.00
2018-04-16T14:51:16.717Z,16928.00
2018-04-16T14:52:16.647Z,21184.00
2018-04-16T14:53:16.664Z,13612.00
2018-04-16T14:54:16.671Z,11976.00
2018-04-16T14:55:16.653Z,10868.00
2018-04-16T14:56:16.642Z,9312.00
2018-04-16T14:57:16.642Z,8100.00
2018-04-16T14:58:16.747Z,7276.00
2018-04-16T14:59:16.639Z,6844.00
2018-04-16T15:00:16.624Z,6560.00
2018-04-16T15:01:16.689Z,6464.00
2018-04-16T15:02:16.636Z,6544.00
2018-04-16T15:03:16.626Z,6900.00
2018-04-16T15:04:16.619Z,8460.00
2018-04-16T15:05:16.624Z,12980.00
2018-04-16T15:06:16.610Z,16448.00
2018-04-16T15:07:16.588Z,20704.00
2018-04-16T15:08:16.712Z,23360.00
2018-04-16T15:09:16.596Z,14492.00
2018-04-16T15:10:16.596Z,18656.00
2018-04-16T15:11:16.599Z,38432.00
2018-04-16T15:12:16.581Z,32864.00
2018-04-16T15:13:16.576Z,9772.00
2018-04-16T15:14:16.555Z,9228.00
2018-04-16T15:15:16.569Z,9136.00
2018-04-16T15:16:16.563Z,8576.00
2018-04-16T15:17:16.538Z,7908.00
2018-04-16T15:18:16.529Z,7596.00
2018-04-16T15:19:16.551Z,7392.00
2018-04-16T15:20:16.613Z,7452.00
2018-04-16T15:21:16.519Z,10732.00
2018-04-16T15:22:16.542Z,14080.00
2018-04-16T15:23:16.521Z,8316.00
2018-04-16T15:24:16.524Z,7664.00
2018-04-16T15:25:16.523Z,11632.00
2018-04-16T15:26:16.543Z,20064.00
2018-04-16T15:27:16.517Z,10404.00
2018-04-16T15:28:16.505Z,14784.00
2018-04-16T15:29:16.513Z,17088.00
2018-04-16T15:30:16.510Z,16576.00
2018-04-16T15:31:16.876Z,20128.00
2018-04-16T15:32:16.493Z,20416.00
2018-04-16T15:33:16.484Z,12608.00
2018-04-16T15:34:16.485Z,20320.00
2018-04-16T15:35:16.479Z,17856.00
2018-04-16T15:36:16.471Z,17184.00
2018-04-16T15:37:16.479Z,13932.00
2018-04-16T15:38:16.436Z,12584.00
2018-04-16T15:39:16.464Z,10980.00
2018-04-16T15:40:16.446Z,9940.00
2018-04-16T15:41:16.442Z,9060.00
2018-04-16T15:42:16.483Z,8332.00
2018-04-16T15:43:16.446Z,7824.00
2018-04-16T15:44:16.445Z,7796.00
2018-04-16T15:45:16.435Z,9656.00
2018-04-16T15:46:16.425Z,7200.00
2018-04-16T15:47:16.461Z,10404.00
2018-04-16T15:48:16.396Z,8728.00
2018-04-16T15:49:16.391Z,7412.00
2018-04-16T15:50:16.383Z,7412.00
2018-04-16T15:51:16.412Z,9844.00
2018-04-16T15:52:16.481Z,9496.00
2018-04-16T15:53:16.382Z,8728.00
2018-04-16T15:54:16.398Z,9956.00
2018-04-16T15:55:16.383Z,9676.00
2018-04-16T15:56:16.390Z,8908.00
2018-04-16T15:57:16.369Z,8372.00
2018-04-16T15:58:16.404Z,8144.00
2018-04-16T15:59:16.364Z,8252.00
2018-04-16T16:00:16.361Z,8548.00
2018-04-16T16:01:16.331Z,8704.00
2018-04-16T16:02:16.360Z,8552.00
2018-04-16T16:03:16.354Z,8028.00
2018-04-16T16:04:16.335Z,7328.00
2018-04-16T16:05:16.330Z,6680.00
2018-04-16T16:06:16.325Z,5952.00
2018-04-16T16:07:16.327Z,5296.00
2018-04-16T16:08:16.321Z,4792.00
2018-04-16T16:09:16.340Z,4580.00
2018-04-16T16:10:16.314Z,4616.00
2018-04-16T16:11:16.279Z,4612.00
2018-04-16T16:12:16.300Z,4704.00
2018-04-16T16:13:16.278Z,4880.00
2018-04-16T16:14:16.301Z,4984.00
2018-04-16T16:15:16.324Z,5032.00
2018-04-16T16:16:16.249Z,5124.00
2018-04-16T16:17:16.260Z,6164.00
2018-04-16T16:18:16.319Z,6812.00
2018-04-16T16:19:16.248Z,6792.00
2018-04-16T16:20:16.230Z,6648.00
2018-04-16T16:21:16.244Z,7124.00
2018-04-16T16:22:16.242Z,7520.00
2018-04-16T16:23:16.234Z,7788.00
2018-04-16T16:24:16.236Z,8280.00
2018-04-16T16:25:16.207Z,8340.00
2018-04-16T16:26:16.191Z,8136.00
2018-04-16T16:27:16.227Z,7364.00
2018-04-16T16:28:16.363Z,6864.00
2018-04-16T16:29:16.168Z,6412.00
2018-04-16T16:30:16.249Z,6268.00
2018-04-16T16:31:16.185Z,6300.00
2018-04-16T16:32:16.156Z,6372.00